sensor_id;sensor_type;location;lat;lon;timestamp;temperature;humidity
21121;DHT22;12519;43.318;21.898;2022-10-03T00:00:39;15.3;92.0
21121;DHT22;12519;43.318;21.898;2022-10-03T00:06:08;15.2;93.0
21121;DHT22;12519;43.318;21.898;2022-10-03T00:11:06;15.2;93.0
21121;DHT22;12519;43.318;21.898;2022-10-03T00:16:17;15.1;93.0
21121;DHT22;12519;43.318;21.898;2022-10-03T00:21:26;15.1;93.0
21121;DHT22;12519;43.318;21.898;2022-10-03T00:26:47;15.2;93.0
21121;DHT22;12519;43.318;21.898;2022-10-03T00:31:52;15.2;93.0
21121;DHT22;12519;43.318;21.898;2022-10-03T00:37:07;15.4;92.0
21121;DHT22;12519;43.318;21.898;2022-10-03T00:45:27;15.4;92.0
21121;DHT22;12519;43.318;21.898;2022-10-03T00:50:58;15.3;92.0
21121;DHT22;12519;43.318;21.898;2022-10-03T00:56:28;15.2;92.0
21121;DHT22;12519;43.318;21.898;2022-10-03T01:01:35;15.2;92.0
21121;DHT22;12519;43.318;21.898;2022-10-03T01:06:43;15.2;92.0
21121;DHT22;12519;43.318;21.898;2022-10-03T01:12:29;15.2;92.0
21121;DHT22;12519;43.318;21.898;2022-10-03T01:18:25;15.1;92.0
21121;DHT22;12519;43.318;21.898;2022-10-03T01:24:25;15.1;92.0
21121;DHT22;12519;43.318;21.898;2022-10-03T01:29:48;15.0;93.0
21121;DHT22;12519;43.318;21.898;2022-10-03T01:34:55;15.0;93.0
21121;DHT22;12519;43.318;21.898;2022-10-03T01:40:25;14.8;94.0
21121;DHT22;12519;43.318;21.898;2022-10-03T01:45:36;14.8;94.0
21121;DHT22;12519;43.318;21.898;2022-10-03T01:51:04;14.8;94.0
21121;DHT22;12519;43.318;21.898;2022-10-03T01:56:20;14.8;94.0
21121;DHT22;12519;43.318;21.898;2022-10-03T02:01:29;14.8;94.0
21121;DHT22;12519;43.318;21.898;2022-10-03T02:06:48;14.8;94.0
21121;DHT22;12519;43.318;21.898;2022-10-03T02:12:05;14.8;94.0
21121;DHT22;12519;43.318;21.898;2022-10-03T02:17:01;14.8;93.0
21121;DHT22;12519;43.318;21.898;2022-10-03T02:21:52;14.8;93.0
21121;DHT22;12519;43.318;21.898;2022-10-03T02:28:27;14.4;94.0
21121;DHT22;12519;43.318;21.898;2022-10-03T02:34:14;14.4;94.0
21121;DHT22;12519;43.318;21.898;2022-10-03T02:42:31;14.1;95.0
21121;DHT22;12519;43.318;21.898;2022-10-03T02:49:03;14.5;96.0
21121;DHT22;12519;43.318;21.898;2022-10-03T02:54:47;14.5;96.0
21121;DHT22;12519;43.318;21.898;2022-10-03T03:00:07;14.9;97.0
21121;DHT22;12519;43.318;21.898;2022-10-03T03:05:34;14.9;97.0
21121;DHT22;12519;43.318;21.898;2022-10-03T03:13:36;15.0;96.0
21121;DHT22;12519;43.318;21.898;2022-10-03T03:19:07;15.0;94.0
21121;DHT22;12519;43.318;21.898;2022-10-03T03:24:37;15.0;94.0
21121;DHT22;12519;43.318;21.898;2022-10-03T03:29:49;14.8;95.0
21121;DHT22;12519;43.318;21.898;2022-10-03T03:35:06;14.8;95.0
21121;DHT22;12519;43.318;21.898;2022-10-03T03:40:34;14.7;95.0
21121;DHT22;12519;43.318;21.898;2022-10-03T03:46:05;14.7;95.0
21121;DHT22;12519;43.318;21.898;2022-10-03T03:51:40;14.7;95.0
21121;DHT22;12519;43.318;21.898;2022-10-03T03:57:27;14.7;95.0
21121;DHT22;12519;43.318;21.898;2022-10-03T04:03:24;14.7;95.0
21121;DHT22;12519;43.318;21.898;2022-10-03T04:09:17;14.8;95.0
21121;DHT22;12519;43.318;21.898;2022-10-03T04:17:33;14.9;95.0
21121;DHT22;12519;43.318;21.898;2022-10-03T04:23:12;14.9;95.0
21121;DHT22;12519;43.318;21.898;2022-10-03T04:28:54;15.0;95.0
21121;DHT22;12519;43.318;21.898;2022-10-03T04:34:31;15.0;95.0
21121;DHT22;12519;43.318;21.898;2022-10-03T04:39:44;15.2;94.0
21121;DHT22;12519;43.318;21.898;2022-10-03T04:45:10;15.2;94.0
21121;DHT22;12519;43.318;21.898;2022-10-03T04:50:30;15.2;95.0
21121;DHT22;12519;43.318;21.898;2022-10-03T04:55:37;15.2;95.0
21121;DHT22;12519;43.318;21.898;2022-10-03T05:00:26;15.1;95.0
21121;DHT22;12519;43.318;21.898;2022-10-03T05:05:39;15.1;95.0
21121;DHT22;12519;43.318;21.898;2022-10-03T05:10:54;14.8;96.0
21121;DHT22;12519;43.318;21.898;2022-10-03T05:16:04;14.8;96.0
21121;DHT22;12519;43.318;21.898;2022-10-03T05:21:04;14.6;97.0
21121;DHT22;12519;43.318;21.898;2022-10-03T05:26:07;14.6;97.0
21121;DHT22;12519;43.318;21.898;2022-10-03T05:31:17;14.6;97.0
21121;DHT22;12519;43.318;21.898;2022-10-03T05:36:32;14.7;97.0
21121;DHT22;12519;43.318;21.898;2022-10-03T05:41:35;14.7;97.0
21121;DHT22;12519;43.318;21.898;2022-10-03T05:46:41;14.4;98.0
21121;DHT22;12519;43.318;21.898;2022-10-03T05:52:16;14.4;98.0
21121;DHT22;12519;43.318;21.898;2022-10-03T05:58:09;14.2;99.0
21121;DHT22;12519;43.318;21.898;2022-10-03T06:04:21;14.2;99.0
21121;DHT22;12519;43.318;21.898;2022-10-03T06:12:11;14.2;99.0
21121;DHT22;12519;43.318;21.898;2022-10-03T06:17:38;14.3;100.0
21121;DHT22;12519;43.318;21.898;2022-10-03T06:23:12;14.3;100.0
21121;DHT22;12519;43.318;21.898;2022-10-03T06:29:27;14.4;100.0
21121;DHT22;12519;43.318;21.898;2022-10-03T06:35:50;14.4;100.0
21121;DHT22;12519;43.318;21.898;2022-10-03T06:43:29;14.6;99.0
21121;DHT22;12519;43.318;21.898;2022-10-03T06:49:56;14.4;100.0
21121;DHT22;12519;43.318;21.898;2022-10-03T06:56:45;14.4;100.0
21121;DHT22;12519;43.318;21.898;2022-10-03T07:02:52;14.2;100.0
21121;DHT22;12519;43.318;21.898;2022-10-03T07:11:04;14.2;100.0
21121;DHT22;12519;43.318;21.898;2022-10-03T07:17:42;14.2;100.0
21121;DHT22;12519;43.318;21.898;2022-10-03T07:28:07;14.3;100.0
21121;DHT22;12519;43.318;21.898;2022-10-03T07:34:33;14.3;100.0
21121;DHT22;12519;43.318;21.898;2022-10-03T07:41:29;14.4;100.0
21121;DHT22;12519;43.318;21.898;2022-10-03T07:48:24;14.4;100.0
21121;DHT22;12519;43.318;21.898;2022-10-03T07:54:58;14.4;100.0
21121;DHT22;12519;43.318;21.898;2022-10-03T08:10:26;15.9;99.0
21121;DHT22;12519;43.318;21.898;2022-10-03T08:15:20;15.9;99.0
21121;DHT22;12519;43.318;21.898;2022-10-03T08:20:32;15.9;99.0
21121;DHT22;12519;43.318;21.898;2022-10-03T08:25:38;15.9;99.0
21121;DHT22;12519;43.318;21.898;2022-10-03T08:30:23;15.9;99.0
21121;DHT22;12519;43.318;21.898;2022-10-03T08:36:06;15.9;99.0
21121;DHT22;12519;43.318;21.898;2022-10-03T08:44:08;15.9;100.0
21121;DHT22;12519;43.318;21.898;2022-10-03T08:50:00;16.2;99.0
21121;DHT22;12519;43.318;21.898;2022-10-03T08:55:40;16.2;99.0
21121;DHT22;12519;43.318;21.898;2022-10-03T09:01:00;16.4;98.0
21121;DHT22;12519;43.318;21.898;2022-10-03T09:07:00;16.4;98.0
21121;DHT22;12519;43.318;21.898;2022-10-03T09:15:19;16.2;99.0
21121;DHT22;12519;43.318;21.898;2022-10-03T09:22:34;15.9;100.0
21121;DHT22;12519;43.318;21.898;2022-10-03T09:29:55;16.0;100.0
21121;DHT22;12519;43.318;21.898;2022-10-03T09:35:57;16.0;100.0
21121;DHT22;12519;43.318;21.898;2022-10-03T09:42:32;16.0;100.0
21121;DHT22;12519;43.318;21.898;2022-10-03T09:49:38;16.2;100.0
21121;DHT22;12519;43.318;21.898;2022-10-03T09:57:49;16.5;99.0
21121;DHT22;12519;43.318;21.898;2022-10-03T10:05:30;16.5;99.0
21121;DHT22;12519;43.318;21.898;2022-10-03T10:14:27;16.6;98.0
21121;DHT22;12519;43.318;21.898;2022-10-03T10:19:59;16.8;97.0
21121;DHT22;12519;43.318;21.898;2022-10-03T10:25:43;16.8;97.0
21121;DHT22;12519;43.318;21.898;2022-10-03T10:31:34;16.8;97.0
21121;DHT22;12519;43.318;21.898;2022-10-03T10:37:49;16.7;97.0
21121;DHT22;12519;43.318;21.898;2022-10-03T10:43:42;16.7;97.0
21121;DHT22;12519;43.318;21.898;2022-10-03T10:53:52;16.6;97.0
21121;DHT22;12519;43.318;21.898;2022-10-03T11:06:37;16.6;96.0
21121;DHT22;12519;43.318;21.898;2022-10-03T11:15:04;16.9;96.0
21121;DHT22;12519;43.318;21.898;2022-10-03T11:27:01;17.2;95.0
21121;DHT22;12519;43.318;21.898;2022-10-03T11:36:06;17.8;93.0
21121;DHT22;12519;43.318;21.898;2022-10-03T11:44:16;18.4;92.0
21121;DHT22;12519;43.318;21.898;2022-10-03T11:49:39;18.2;90.0
21121;DHT22;12519;43.318;21.898;2022-10-03T11:55:30;18.2;90.0
21121;DHT22;12519;43.318;21.898;2022-10-03T12:00:20;18.1;88.0
21121;DHT22;12519;43.318;21.898;2022-10-03T12:05:18;18.1;88.0
21121;DHT22;12519;43.318;21.898;2022-10-03T12:10:46;18.0;86.0
21121;DHT22;12519;43.318;21.898;2022-10-03T12:15:50;18.0;86.0
21121;DHT22;12519;43.318;21.898;2022-10-03T12:21:05;17.9;84.0
21121;DHT22;12519;43.318;21.898;2022-10-03T12:25:50;17.9;84.0
21121;DHT22;12519;43.318;21.898;2022-10-03T12:30:44;18.0;82.0
21121;DHT22;12519;43.318;21.898;2022-10-03T12:35:48;18.0;82.0
21121;DHT22;12519;43.318;21.898;2022-10-03T12:40:50;18.0;79.0
21121;DHT22;12519;43.318;21.898;2022-10-03T12:45:59;18.0;79.0
21121;DHT22;12519;43.318;21.898;2022-10-03T12:50:58;18.0;79.0
21121;DHT22;12519;43.318;21.898;2022-10-03T12:56:05;18.0;79.0
21121;DHT22;12519;43.318;21.898;2022-10-03T13:01:11;17.9;79.0
21121;DHT22;12519;43.318;21.898;2022-10-03T13:06:39;17.9;79.0
21121;DHT22;12519;43.318;21.898;2022-10-03T13:11:54;17.5;82.0
21121;DHT22;12519;43.318;21.898;2022-10-03T13:17:03;17.5;82.0
21121;DHT22;12519;43.318;21.898;2022-10-03T13:22:28;17.2;85.0
21121;DHT22;12519;43.318;21.898;2022-10-03T13:27:35;17.6;85.0
21121;DHT22;12519;43.318;21.898;2022-10-03T13:32:32;17.6;85.0
21121;DHT22;12519;43.318;21.898;2022-10-03T13:37:28;18.1;84.0
21121;DHT22;12519;43.318;21.898;2022-10-03T13:42:38;18.1;84.0
21121;DHT22;12519;43.318;21.898;2022-10-03T13:47:43;18.0;83.0
21121;DHT22;12519;43.318;21.898;2022-10-03T13:52:41;18.0;83.0
21121;DHT22;12519;43.318;21.898;2022-10-03T13:57:41;17.8;81.0
21121;DHT22;12519;43.318;21.898;2022-10-03T14:03:15;17.8;81.0
21121;DHT22;12519;43.318;21.898;2022-10-03T14:08:49;17.8;81.0
21121;DHT22;12519;43.318;21.898;2022-10-03T14:16:21;17.8;81.0
21121;DHT22;12519;43.318;21.898;2022-10-03T14:21:35;17.8;81.0
21121;DHT22;12519;43.318;21.898;2022-10-03T14:27:11;17.8;81.0
21121;DHT22;12519;43.318;21.898;2022-10-03T14:32:35;18.0;80.0
21121;DHT22;12519;43.318;21.898;2022-10-03T14:37:50;18.2;79.0
21121;DHT22;12519;43.318;21.898;2022-10-03T14:43:25;18.2;79.0
21121;DHT22;12519;43.318;21.898;2022-10-03T14:48:34;18.3;79.0
21121;DHT22;12519;43.318;21.898;2022-10-03T14:53:26;18.3;79.0
21121;DHT22;12519;43.318;21.898;2022-10-03T14:58:16;18.4;80.0
21121;DHT22;12519;43.318;21.898;2022-10-03T15:03:20;18.4;80.0
21121;DHT22;12519;43.318;21.898;2022-10-03T15:08:15;18.2;82.0
21121;DHT22;12519;43.318;21.898;2022-10-03T15:13:05;18.2;82.0
21121;DHT22;12519;43.318;21.898;2022-10-03T15:17:49;18.1;83.0
21121;DHT22;12519;43.318;21.898;2022-10-03T15:22:34;18.1;83.0
21121;DHT22;12519;43.318;21.898;2022-10-03T15:27:20;18.1;83.0
21121;DHT22;12519;43.318;21.898;2022-10-03T15:32:04;17.6;84.0
21121;DHT22;12519;43.318;21.898;2022-10-03T15:37:06;17.6;84.0
21121;DHT22;12519;43.318;21.898;2022-10-03T15:42:01;17.1;85.0
21121;DHT22;12519;43.318;21.898;2022-10-03T15:47:03;17.1;85.0
21121;DHT22;12519;43.318;21.898;2022-10-03T15:51:48;16.8;86.0
21121;DHT22;12519;43.318;21.898;2022-10-03T15:56:36;16.8;86.0
21121;DHT22;12519;43.318;21.898;2022-10-03T16:01:25;16.5;86.0
21121;DHT22;12519;43.318;21.898;2022-10-03T16:06:17;16.5;86.0
21121;DHT22;12519;43.318;21.898;2022-10-03T16:11:12;16.4;85.0
21121;DHT22;12519;43.318;21.898;2022-10-03T16:16:12;16.4;85.0
21121;DHT22;12519;43.318;21.898;2022-10-03T16:21:01;16.2;84.0
21121;DHT22;12519;43.318;21.898;2022-10-03T16:25:48;16.2;84.0
21121;DHT22;12519;43.318;21.898;2022-10-03T16:30:46;16.2;84.0
21121;DHT22;12519;43.318;21.898;2022-10-03T16:35:44;16.2;84.0
21121;DHT22;12519;43.318;21.898;2022-10-03T16:40:29;16.3;85.0
21121;DHT22;12519;43.318;21.898;2022-10-03T16:45:25;16.3;85.0
21121;DHT22;12519;43.318;21.898;2022-10-03T16:50:21;16.2;85.0
21121;DHT22;12519;43.318;21.898;2022-10-03T16:55:05;16.2;85.0
21121;DHT22;12519;43.318;21.898;2022-10-03T16:59:59;16.1;86.0
21121;DHT22;12519;43.318;21.898;2022-10-03T17:04:46;16.1;86.0
21121;DHT22;12519;43.318;21.898;2022-10-03T17:09:46;16.1;87.0
21121;DHT22;12519;43.318;21.898;2022-10-03T17:14:38;16.1;87.0
21121;DHT22;12519;43.318;21.898;2022-10-03T17:19:32;16.1;87.0
21121;DHT22;12519;43.318;21.898;2022-10-03T17:24:45;16.1;87.0
21121;DHT22;12519;43.318;21.898;2022-10-03T17:29:53;16.2;86.0
21121;DHT22;12519;43.318;21.898;2022-10-03T17:35:11;16.2;86.0
21121;DHT22;12519;43.318;21.898;2022-10-03T17:40:20;16.4;86.0
21121;DHT22;12519;43.318;21.898;2022-10-03T17:45:31;16.4;86.0
21121;DHT22;12519;43.318;21.898;2022-10-03T17:50:27;16.2;86.0
21121;DHT22;12519;43.318;21.898;2022-10-03T17:55:21;16.2;86.0
21121;DHT22;12519;43.318;21.898;2022-10-03T18:00:17;16.0;86.0
21121;DHT22;12519;43.318;21.898;2022-10-03T18:05:13;16.0;86.0
21121;DHT22;12519;43.318;21.898;2022-10-03T18:09:57;16.1;87.0
21121;DHT22;12519;43.318;21.898;2022-10-03T18:15:02;16.1;87.0
21121;DHT22;12519;43.318;21.898;2022-10-03T18:20:46;16.2;87.0
21121;DHT22;12519;43.318;21.898;2022-10-03T18:25:53;16.2;87.0
21121;DHT22;12519;43.318;21.898;2022-10-03T18:30:49;16.1;87.0
21121;DHT22;12519;43.318;21.898;2022-10-03T18:35:35;16.1;87.0
21121;DHT22;12519;43.318;21.898;2022-10-03T18:40:20;16.0;87.0
21121;DHT22;12519;43.318;21.898;2022-10-03T18:45:00;16.0;87.0
21121;DHT22;12519;43.318;21.898;2022-10-03T18:49:43;15.8;88.0
21121;DHT22;12519;43.318;21.898;2022-10-03T18:54:56;15.8;88.0
21121;DHT22;12519;43.318;21.898;2022-10-03T18:59:53;15.6;89.0
21121;DHT22;12519;43.318;21.898;2022-10-03T19:04:47;15.6;89.0
21121;DHT22;12519;43.318;21.898;2022-10-03T19:10:04;15.6;89.0
21121;DHT22;12519;43.318;21.898;2022-10-03T19:15:22;15.6;89.0
21121;DHT22;12519;43.318;21.898;2022-10-03T19:20:42;15.7;89.0
21121;DHT22;12519;43.318;21.898;2022-10-03T19:25:29;15.7;89.0
21121;DHT22;12519;43.318;21.898;2022-10-03T19:30:20;15.6;89.0
21121;DHT22;12519;43.318;21.898;2022-10-03T19:35:09;15.6;89.0
21121;DHT22;12519;43.318;21.898;2022-10-03T19:39:57;15.6;89.0
21121;DHT22;12519;43.318;21.898;2022-10-03T19:44:37;15.6;89.0
21121;DHT22;12519;43.318;21.898;2022-10-03T19:49:28;15.6;89.0
21121;DHT22;12519;43.318;21.898;2022-10-03T19:54:33;15.6;89.0
21121;DHT22;12519;43.318;21.898;2022-10-03T19:59:43;15.6;89.0
21121;DHT22;12519;43.318;21.898;2022-10-03T20:04:34;15.6;89.0
21121;DHT22;12519;43.318;21.898;2022-10-03T20:09:23;15.4;90.0
21121;DHT22;12519;43.318;21.898;2022-10-03T20:14:14;15.4;90.0
21121;DHT22;12519;43.318;21.898;2022-10-03T20:19:06;15.2;90.0
21121;DHT22;12519;43.318;21.898;2022-10-03T20:23:48;15.2;90.0
21121;DHT22;12519;43.318;21.898;2022-10-03T20:28:54;15.2;91.0
21121;DHT22;12519;43.318;21.898;2022-10-03T20:34:01;15.2;91.0
21121;DHT22;12519;43.318;21.898;2022-10-03T20:39:08;15.1;93.0
21121;DHT22;12519;43.318;21.898;2022-10-03T20:44:09;15.1;93.0
21121;DHT22;12519;43.318;21.898;2022-10-03T20:49:18;15.0;93.0
21121;DHT22;12519;43.318;21.898;2022-10-03T20:54:12;15.0;93.0
21121;DHT22;12519;43.318;21.898;2022-10-03T20:58:57;14.8;93.0
21121;DHT22;12519;43.318;21.898;2022-10-03T21:04:06;14.8;93.0
21121;DHT22;12519;43.318;21.898;2022-10-03T21:08:56;14.8;93.0
21121;DHT22;12519;43.318;21.898;2022-10-03T21:13:50;14.8;93.0
21121;DHT22;12519;43.318;21.898;2022-10-03T21:18:37;14.9;92.0
21121;DHT22;12519;43.318;21.898;2022-10-03T21:23:25;14.9;92.0
21121;DHT22;12519;43.318;21.898;2022-10-03T21:28:04;14.9;92.0
21121;DHT22;12519;43.318;21.898;2022-10-03T21:33:10;15.0;92.0
21121;DHT22;12519;43.318;21.898;2022-10-03T21:38:22;15.0;92.0
21121;DHT22;12519;43.318;21.898;2022-10-03T21:43:27;15.1;91.0
21121;DHT22;12519;43.318;21.898;2022-10-03T21:48:44;15.1;91.0
21121;DHT22;12519;43.318;21.898;2022-10-03T21:54:29;15.1;91.0
21121;DHT22;12519;43.318;21.898;2022-10-03T22:00:00;15.1;92.0
21121;DHT22;12519;43.318;21.898;2022-10-03T22:04:59;15.1;92.0
21121;DHT22;12519;43.318;21.898;2022-10-03T22:10:14;14.8;92.0
21121;DHT22;12519;43.318;21.898;2022-10-03T22:15:09;14.8;92.0
21121;DHT22;12519;43.318;21.898;2022-10-03T22:20:18;14.5;92.0
21121;DHT22;12519;43.318;21.898;2022-10-03T22:25:22;14.5;92.0
21121;DHT22;12519;43.318;21.898;2022-10-03T22:31:02;14.4;92.0
21121;DHT22;12519;43.318;21.898;2022-10-03T22:36:11;14.4;92.0
21121;DHT22;12519;43.318;21.898;2022-10-03T22:40:49;14.4;93.0
21121;DHT22;12519;43.318;21.898;2022-10-03T22:45:46;14.4;93.0
21121;DHT22;12519;43.318;21.898;2022-10-03T22:50:38;14.4;92.0
21121;DHT22;12519;43.318;21.898;2022-10-03T22:55:24;14.4;92.0
21121;DHT22;12519;43.318;21.898;2022-10-03T23:00:08;14.5;92.0
21121;DHT22;12519;43.318;21.898;2022-10-03T23:04:53;14.5;92.0
21121;DHT22;12519;43.318;21.898;2022-10-03T23:09:44;14.4;92.0
21121;DHT22;12519;43.318;21.898;2022-10-03T23:14:45;14.4;92.0
21121;DHT22;12519;43.318;21.898;2022-10-03T23:19:47;14.2;93.0
21121;DHT22;12519;43.318;21.898;2022-10-03T23:24:45;14.2;93.0
21121;DHT22;12519;43.318;21.898;2022-10-03T23:29:31;14.4;92.0
21121;DHT22;12519;43.318;21.898;2022-10-03T23:34:07;14.4;92.0
21121;DHT22;12519;43.318;21.898;2022-10-03T23:38:56;14.5;92.0
21121;DHT22;12519;43.318;21.898;2022-10-03T23:43:38;14.5;92.0
21121;DHT22;12519;43.318;21.898;2022-10-03T23:48:42;14.5;92.0
21121;DHT22;12519;43.318;21.898;2022-10-03T23:53:32;14.6;92.0
21121;DHT22;12519;43.318;21.898;2022-10-03T23:58:22;14.6;92.0
